Time;durP1;ratioP1;P1;durP2;ratioP2;P2;SDS_P1;SDS_P2;PMS_P1;PMS_P2;Temp;Humidity;BMP_temperature;BMP_pressure;BME280_temperature;BME280_humidity;BME280_pressure;Samples;Min_cycle;Max_cycle;Signal;HPM_P1;HPM_P2
2023/02/18 00:00:33;;;;;;;6.83;1.90;;;7.70;99.90;;;;;;5077968;28;20444;-64
2023/02/18 00:03:00;;;;;;;5.33;1.30;;;7.70;99.90;;;;;;5077258;28;20499;-63
2023/02/18 00:05:29;;;;;;;8.93;1.63;;;7.70;99.90;;;;;;5077420;28;20435;-61
2023/02/18 00:07:56;;;;;;;14.80;6.27;;;7.70;99.90;;;;;;5077167;28;20459;-59
2023/02/18 00:10:23;;;;;;;9.57;2.20;;;7.70;99.90;;;;;;5077789;28;20443;-60
2023/02/18 00:12:50;;;;;;;7.80;1.40;;;7.60;99.90;;;;;;5077907;28;20501;-62
2023/02/18 00:15:17;;;;;;;3.30;1.20;;;7.60;99.90;;;;;;5077818;28;20470;-59
2023/02/18 00:17:43;;;;;;;4.47;1.50;;;7.60;99.90;;;;;;5077616;28;20454;-58
2023/02/18 00:20:13;;;;;;;5.17;1.37;;;7.60;99.90;;;;;;5077045;28;20485;-60
2023/02/18 00:22:41;;;;;;;7.23;1.33;;;7.60;99.90;;;;;;5077510;28;20450;-62
2023/02/18 00:25:08;;;;;;;10.63;2.33;;;7.50;99.90;;;;;;5077606;28;20423;-61
2023/02/18 00:27:35;;;;;;;6.70;1.40;;;7.50;99.90;;;;;;5077192;28;20412;-61
2023/02/18 00:30:02;;;;;;;8.90;2.80;;;7.50;99.90;;;;;;5076953;28;20439;-60
2023/02/18 00:32:29;;;;;;;8.03;4.20;;;7.60;99.90;;;;;;5077131;28;20478;-62
2023/02/18 00:34:56;;;;;;;7.73;1.40;;;7.50;99.90;;;;;;5077347;28;20474;-60
2023/02/18 00:37:23;;;;;;;18.63;2.70;;;7.50;99.90;;;;;;5076808;28;20463;-57
2023/02/18 00:39:51;;;;;;;7.03;1.90;;;7.40;99.90;;;;;;5077217;28;20443;-59
2023/02/18 00:42:18;;;;;;;5.87;1.53;;;7.40;99.90;;;;;;5076933;28;20474;-63
2023/02/18 00:44:47;;;;;;;5.33;1.10;;;7.40;99.90;;;;;;5077077;28;20435;-61
2023/02/18 00:47:14;;;;;;;13.57;2.20;;;7.30;99.90;;;;;;5077177;28;20493;-62
2023/02/18 00:49:41;;;;;;;8.33;2.10;;;7.30;99.90;;;;;;5077023;28;20440;-60
2023/02/18 00:52:08;;;;;;;6.57;1.67;;;7.30;99.90;;;;;;5076488;28;20447;-62
2023/02/18 00:54:35;;;;;;;4.27;1.37;;;7.30;99.90;;;;;;5076860;28;20471;-61
2023/02/18 00:57:03;;;;;;;8.37;1.33;;;7.20;99.90;;;;;;5076368;28;20574;-61
2023/02/18 00:59:33;;;;;;;12.33;1.80;;;7.20;99.90;;;;;;5076653;28;20541;-63
2023/02/18 01:02:00;;;;;;;10.93;2.50;;;7.20;99.90;;;;;;5076568;28;20435;-62
2023/02/18 01:04:27;;;;;;;8.40;1.30;;;7.20;99.90;;;;;;5076115;28;20451;-64
2023/02/18 01:06:54;;;;;;;5.70;1.90;;;7.20;99.90;;;;;;5076671;28;20431;-59
2023/02/18 01:09:24;;;;;;;10.20;2.73;;;7.10;99.90;;;;;;5076824;28;20454;-61
2023/02/18 01:11:51;;;;;;;2.60;1.00;;;7.10;99.90;;;;;;5076654;28;20435;-61
2023/02/18 01:14:21;;;;;;;3.40;1.43;;;7.00;99.90;;;;;;5076234;28;20466;-60
2023/02/18 01:16:49;;;;;;;10.70;2.60;;;7.00;99.90;;;;;;5076363;28;20443;-62
2023/02/18 01:19:16;;;;;;;4.07;1.60;;;7.10;99.90;;;;;;5075919;28;20449;-60
2023/02/18 01:21:43;;;;;;;1.77;1.00;;;7.00;99.90;;;;;;5076020;28;20501;-60
2023/02/18 01:24:10;;;;;;;6.13;1.07;;;7.00;99.90;;;;;;5076362;28;20427;-63
2023/02/18 01:26:37;;;;;;;6.30;1.87;;;7.00;99.90;;;;;;5076346;28;20458;-62
2023/02/18 01:29:04;;;;;;;2.17;1.67;;;7.00;99.90;;;;;;5076524;28;20459;-60
2023/02/18 01:31:32;;;;;;;3.77;1.63;;;7.00;99.90;;;;;;5076217;28;20443;-61
2023/02/18 01:33:59;;;;;;;3.30;0.90;;;7.00;99.90;;;;;;5075969;28;20471;-58
2023/02/18 01:36:26;;;;;;;5.87;1.20;;;7.00;99.90;;;;;;5076722;28;20443;-61
2023/02/18 01:38:53;;;;;;;10.73;1.93;;;6.90;99.90;;;;;;5076362;28;20475;-56
2023/02/18 01:41:20;;;;;;;11.00;1.30;;;6.90;99.90;;;;;;5076397;28;20427;-57
2023/02/18 01:43:47;;;;;;;3.73;1.47;;;6.90;99.90;;;;;;5077267;28;20955;-59
2023/02/18 01:46:18;;;;;;;6.07;2.80;;;7.00;99.90;;;;;;5080266;28;20451;-61
2023/02/18 01:48:51;;;;;;;5.80;1.47;;;7.00;99.90;;;;;;5080019;28;20478;-60
2023/02/18 01:51:22;;;;;;;9.23;1.70;;;6.90;99.90;;;;;;5080064;28;20431;-61
2023/02/18 01:53:56;;;;;;;2.00;1.50;;;7.00;99.90;;;;;;5080045;28;20463;-61
2023/02/18 01:56:31;;;;;;;2.33;1.80;;;7.00;99.90;;;;;;5080282;28;20458;-59
2023/02/18 01:59:01;;;;;;;14.70;2.67;;;7.00;99.90;;;;;;5080282;28;20431;-62
2023/02/18 02:01:31;;;;;;;2.13;1.20;;;7.00;99.90;;;;;;5079748;28;20474;-63
2023/02/18 02:03:59;;;;;;;7.30;1.33;;;7.00;99.90;;;;;;5079707;28;20415;-61
2023/02/18 02:06:28;;;;;;;7.73;1.60;;;7.00;99.90;;;;;;5080049;28;20480;-61
2023/02/18 02:08:58;;;;;;;7.60;2.10;;;6.90;99.90;;;;;;5079998;28;20437;-62
2023/02/18 02:11:38;;;;;;;5.67;1.77;;;6.90;99.90;;;;;;5080148;28;20474;-60
2023/02/18 02:14:22;;;;;;;7.70;1.73;;;6.90;99.90;;;;;;5079797;28;20459;-60
2023/02/18 02:17:01;;;;;;;1.20;1.10;;;6.90;99.90;;;;;;5079777;28;20474;-55
2023/02/18 02:20:10;;;;;;;9.13;1.53;;;6.90;99.90;;;;;;5079751;28;20438;-61
2023/02/18 02:23:16;;;;;;;4.30;2.03;;;6.90;99.90;;;;;;5079501;28;20945;-60
2023/02/18 02:26:09;;;;;;;6.13;1.83;;;6.90;99.90;;;;;;5080086;28;20434;-64
2023/02/18 02:29:05;;;;;;;9.10;2.13;;;6.80;99.90;;;;;;5079538;28;20487;-60
2023/02/18 02:32:04;;;;;;;3.97;1.20;;;6.80;99.90;;;;;;5079470;28;20424;-61
2023/02/18 02:34:45;;;;;;;2.70;1.37;;;6.90;99.90;;;;;;5079595;28;20494;-61
2023/02/18 02:37:18;;;;;;;6.97;1.40;;;6.80;99.90;;;;;;5079504;28;20424;-61
2023/02/18 02:39:56;;;;;;;9.20;1.27;;;6.80;99.90;;;;;;5078963;28;20467;-59
2023/02/18 02:42:37;;;;;;;10.97;1.07;;;6.80;99.90;;;;;;5079669;28;20424;-60
2023/02/18 02:45:18;;;;;;;6.87;1.63;;;6.80;99.90;;;;;;5079204;28;20502;-61
2023/02/18 02:47:51;;;;;;;6.03;1.37;;;6.70;99.90;;;;;;5078968;28;20479;-60
2023/02/18 02:50:26;;;;;;;3.57;2.37;;;6.70;99.90;;;;;;5078953;28;20463;-62
2023/02/18 02:52:58;;;;;;;4.93;0.97;;;6.70;99.90;;;;;;5078859;28;20498;-61
2023/02/18 02:55:25;;;;;;;1.40;1.27;;;6.80;99.90;;;;;;5078903;28;20431;-55
2023/02/18 02:57:56;;;;;;;1.80;0.80;;;6.70;99.90;;;;;;5079012;28;20477;-56
2023/02/18 03:00:34;;;;;;;6.00;1.47;;;6.70;99.90;;;;;;5079417;28;20467;-60
2023/02/18 03:03:23;;;;;;;3.33;1.17;;;6.70;99.90;;;;;;5079288;28;20471;-59
2023/02/18 03:06:11;;;;;;;5.83;1.77;;;6.70;99.90;;;;;;5078957;28;20423;-58
2023/02/18 03:08:45;;;;;;;1.37;1.23;;;6.70;99.90;;;;;;5078798;28;20447;-61
2023/02/18 03:11:14;;;;;;;3.90;1.70;;;6.70;99.90;;;;;;5078929;28;20447;-62
2023/02/18 03:14:00;;;;;;;2.83;1.33;;;6.70;99.90;;;;;;5079084;28;20522;-59
2023/02/18 03:16:34;;;;;;;4.83;1.47;;;6.70;99.90;;;;;;5078960;28;20447;-60
2023/02/18 03:19:07;;;;;;;6.13;1.20;;;6.70;99.90;;;;;;5078798;28;20471;-61
2023/02/18 03:21:39;;;;;;;3.30;0.90;;;6.70;99.90;;;;;;5078574;28;20437;-62
2023/02/18 03:24:12;;;;;;;7.27;1.50;;;6.70;99.90;;;;;;5078788;28;20790;-58
2023/02/18 03:26:45;;;;;;;6.57;2.07;;;6.70;99.90;;;;;;5078700;28;20443;-59
2023/02/18 03:29:18;;;;;;;3.00;1.33;;;6.70;99.90;;;;;;5078605;28;20404;-62
2023/02/18 03:31:52;;;;;;;8.60;2.10;;;6.70;99.90;;;;;;5078596;28;20412;-61
2023/02/18 03:34:23;;;;;;;4.00;1.63;;;6.70;99.90;;;;;;5078565;28;20463;-60
2023/02/18 03:36:52;;;;;;;5.03;1.07;;;7.10;99.90;;;;;;5078506;28;20434;-62
2023/02/18 03:39:24;;;;;;;5.93;1.27;;;7.30;99.90;;;;;;5078906;28;20474;-62
2023/02/18 03:41:51;;;;;;;9.50;1.50;;;7.20;99.90;;;;;;5079467;28;20490;-59
2023/02/18 03:44:20;;;;;;;8.80;1.23;;;6.90;99.90;;;;;;5079246;28;20439;-60
2023/02/18 03:46:47;;;;;;;7.43;1.90;;;6.80;99.90;;;;;;5079313;28;20438;-54
2023/02/18 03:49:17;;;;;;;0.80;0.50;;;6.90;99.90;;;;;;5079474;28;20452;-59
2023/02/18 03:51:44;;;;;;;3.90;1.37;;;6.80;99.90;;;;;;5079627;28;20485;-59
2023/02/18 03:54:13;;;;;;;2.80;1.13;;;6.80;99.90;;;;;;5079378;28;20478;-61
2023/02/18 03:56:41;;;;;;;3.30;1.93;;;6.80;99.90;;;;;;5078596;28;20433;-53
2023/02/18 03:59:09;;;;;;;8.40;1.17;;;6.90;99.90;;;;;;5078871;28;20461;-61
2023/02/18 04:01:36;;;;;;;7.40;1.37;;;6.70;99.90;;;;;;5078160;28;20430;-60
2023/02/18 04:04:03;;;;;;;2.17;1.23;;;6.80;99.90;;;;;;5077444;28;20466;-61
2023/02/18 04:06:30;;;;;;;7.23;1.57;;;7.40;99.90;;;;;;5077018;28;20447;-59
2023/02/18 04:08:57;;;;;;;4.50;0.93;;;6.70;99.90;;;;;;5077742;28;20474;-58
2023/02/18 04:11:25;;;;;;;1.57;0.90;;;7.30;99.90;;;;;;5077884;28;20423;-60
2023/02/18 04:13:52;;;;;;;2.13;1.23;;;6.50;99.90;;;;;;5077709;28;20538;-62
2023/02/18 04:16:27;;;;;;;12.33;1.93;;;6.70;99.90;;;;;;5078158;28;20428;-57
2023/02/18 04:18:53;;;;;;;4.17;1.33;;;6.80;99.90;;;;;;5077582;28;20443;-63
2023/02/18 04:21:20;;;;;;;5.87;1.23;;;7.10;99.90;;;;;;5077681;28;20447;-57
2023/02/18 04:23:49;;;;;;;2.80;1.57;;;6.70;99.90;;;;;;5077606;28;20423;-65
2023/02/18 04:26:16;;;;;;;3.07;1.37;;;6.70;99.90;;;;;;5077579;28;20482;-61
2023/02/18 04:28:45;;;;;;;2.20;1.73;;;6.60;99.90;;;;;;5077554;28;20442;-62
2023/02/18 04:31:11;;;;;;;3.37;1.37;;;6.70;99.90;;;;;;5077677;28;20474;-60
2023/02/18 04:33:38;;;;;;;2.20;0.93;;;7.10;99.90;;;;;;5077228;28;20475;-62
2023/02/18 04:36:06;;;;;;;2.20;0.80;;;6.70;99.90;;;;;;5077552;28;20478;-65
2023/02/18 04:38:40;;;;;;;1.87;1.60;;;6.40;99.90;;;;;;5077241;28;20432;-57
2023/02/18 04:41:07;;;;;;;7.43;1.10;;;6.60;99.90;;;;;;5077463;28;20434;-59
2023/02/18 04:43:35;;;;;;;1.63;0.80;;;6.90;99.90;;;;;;5077236;28;20874;-61
2023/02/18 04:46:09;;;;;;;2.80;0.87;;;6.60;99.90;;;;;;5077155;28;20447;-57
2023/02/18 04:48:36;;;;;;;8.33;1.60;;;6.60;99.90;;;;;;5076491;28;20471;-59
2023/02/18 04:51:03;;;;;;;11.00;2.53;;;6.70;99.90;;;;;;5075654;28;20482;-59
2023/02/18 04:53:30;;;;;;;7.40;1.27;;;6.60;99.90;;;;;;5075672;28;20979;-61
2023/02/18 04:55:58;;;;;;;7.40;1.97;;;6.50;99.90;;;;;;5076384;28;20456;-63
2023/02/18 04:58:25;;;;;;;7.07;0.70;;;6.60;99.90;;;;;;5076302;28;20444;-59
2023/02/18 05:00:55;;;;;;;3.33;1.03;;;6.80;99.90;;;;;;5076582;28;20419;-60
2023/02/18 05:03:23;;;;;;;1.63;1.03;;;6.70;99.90;;;;;;5077038;28;20451;-60
2023/02/18 05:05:50;;;;;;;1.97;1.13;;;6.80;99.90;;;;;;5076999;28;20459;-62
2023/02/18 05:08:17;;;;;;;8.40;0.80;;;6.40;99.90;;;;;;5077091;28;20423;-59
2023/02/18 05:10:45;;;;;;;3.53;1.17;;;6.50;99.90;;;;;;5076433;28;20447;-60
2023/02/18 05:13:12;;;;;;;8.10;1.97;;;6.60;99.90;;;;;;5076514;28;20439;-60
2023/02/18 05:15:39;;;;;;;5.73;1.10;;;6.40;99.90;;;;;;5076626;28;20793;-59
2023/02/18 05:18:06;;;;;;;14.53;1.90;;;6.70;99.90;;;;;;5076166;28;20451;-59
2023/02/18 05:20:35;;;;;;;1.33;1.13;;;6.60;99.90;;;;;;5076820;28;20435;-61
2023/02/18 05:23:07;;;;;;;2.73;1.00;;;6.60;99.90;;;;;;5076384;28;20423;-56
2023/02/18 05:25:34;;;;;;;16.40;1.50;;;7.00;99.90;;;;;;5076809;28;20915;-59
2023/02/18 05:28:00;;;;;;;2.83;1.13;;;6.70;99.90;;;;;;5076289;28;20943;-58
2023/02/18 05:30:27;;;;;;;2.67;1.03;;;6.70;99.90;;;;;;5077184;28;20454;-59
2023/02/18 05:32:57;;;;;;;2.57;0.77;;;6.90;99.90;;;;;;5076227;28;20477;-59
2023/02/18 05:35:24;;;;;;;4.73;1.60;;;7.20;99.90;;;;;;5076354;28;20491;-60
2023/02/18 05:37:52;;;;;;;3.33;1.10;;;6.80;99.90;;;;;;5076115;28;20458;-61
2023/02/18 05:40:19;;;;;;;2.60;1.10;;;7.10;99.90;;;;;;5075938;28;20458;-60
2023/02/18 05:42:46;;;;;;;0.90;0.60;;;6.90;99.90;;;;;;5076123;28;20442;-61
2023/02/18 05:45:13;;;;;;;5.53;1.67;;;7.00;99.90;;;;;;5076079;28;20427;-59
2023/02/18 05:47:43;;;;;;;4.50;1.90;;;7.00;99.90;;;;;;5075783;28;20458;-61
2023/02/18 05:50:10;;;;;;;1.93;1.10;;;6.90;99.90;;;;;;5075558;28;20423;-62
2023/02/18 05:52:37;;;;;;;2.20;0.90;;;7.20;99.90;;;;;;5076009;28;20501;-60
2023/02/18 05:55:08;;;;;;;6.50;1.27;;;7.00;99.90;;;;;;5076166;28;20518;-64
2023/02/18 05:57:35;;;;;;;3.33;1.10;;;7.00;99.90;;;;;;5076234;28;20467;-61
2023/02/18 06:00:03;;;;;;;1.47;1.33;;;7.00;99.90;;;;;;5076357;28;20478;-59
2023/02/18 06:02:30;;;;;;;1.53;1.00;;;7.10;99.90;;;;;;5075765;28;20503;-61
2023/02/18 06:04:56;;;;;;;5.83;0.83;;;7.00;99.90;;;;;;5075609;28;20526;-62
2023/02/18 06:07:23;;;;;;;8.00;1.43;;;7.30;99.90;;;;;;5075381;28;20454;-62
2023/02/18 06:09:50;;;;;;;1.40;0.87;;;7.30;99.90;;;;;;5075541;28;20466;-60
2023/02/18 06:12:24;;;;;;;2.43;1.30;;;7.20;99.90;;;;;;5075757;28;20463;-60
2023/02/18 06:14:52;;;;;;;1.10;0.90;;;7.20;99.90;;;;;;5075873;28;20501;-59
2023/02/18 06:17:19;;;;;;;5.00;1.10;;;7.20;99.90;;;;;;5075931;28;20479;-61
2023/02/18 06:19:46;;;;;;;1.67;0.90;;;7.20;99.90;;;;;;5075969;28;20439;-60
2023/02/18 06:22:16;;;;;;;1.10;0.90;;;7.10;99.90;;;;;;5075099;28;20455;-61
2023/02/18 06:24:44;;;;;;;1.57;1.20;;;7.60;99.90;;;;;;5076016;28;20435;-64
2023/02/18 06:27:11;;;;;;;3.03;1.77;;;7.30;99.90;;;;;;5075616;28;20443;-61
2023/02/18 06:29:40;;;;;;;10.33;3.97;;;7.40;99.90;;;;;;5076974;28;20436;-61
2023/02/18 06:32:06;;;;;;;2.80;1.27;;;7.30;99.90;;;;;;5079512;28;20461;-64
2023/02/18 06:34:33;;;;;;;2.73;1.37;;;7.40;99.90;;;;;;5078905;28;20538;-64
2023/02/18 06:37:00;;;;;;;14.20;2.40;;;7.50;99.90;;;;;;5079150;28;20439;-62
2023/02/18 06:39:27;;;;;;;6.03;2.30;;;7.50;99.90;;;;;;5079160;28;20463;-58
2023/02/18 06:41:54;;;;;;;2.23;1.10;;;7.30;99.90;;;;;;5079306;28;20443;-61
2023/02/18 06:44:21;;;;;;;1.43;0.80;;;7.80;99.90;;;;;;5079228;28;20446;-59
2023/02/18 06:46:49;;;;;;;4.57;1.00;;;7.70;99.90;;;;;;5079006;28;20509;-61
2023/02/18 06:49:16;;;;;;;3.73;1.20;;;8.00;99.90;;;;;;5078812;28;20443;-59
2023/02/18 06:51:43;;;;;;;1.70;1.07;;;7.30;99.90;;;;;;5078999;28;20505;-62
2023/02/18 06:54:10;;;;;;;4.17;1.10;;;7.40;99.90;;;;;;5078441;28;20498;-60
2023/02/18 06:56:37;;;;;;;3.63;1.67;;;7.40;99.90;;;;;;5077973;28;20474;-61
2023/02/18 06:59:03;;;;;;;1.30;0.80;;;7.50;99.90;;;;;;5078239;28;20431;-62
2023/02/18 07:01:30;;;;;;;5.97;1.27;;;7.30;99.90;;;;;;5078177;28;20494;-63
2023/02/18 07:03:59;;;;;;;4.10;1.87;;;7.50;99.90;;;;;;5078200;28;20423;-61
2023/02/18 07:06:25;;;;;;;2.33;1.10;;;7.50;99.90;;;;;;5078489;28;20546;-59
2023/02/18 07:08:52;;;;;;;2.90;2.23;;;7.50;99.90;;;;;;5078655;28;20454;-58
2023/02/18 07:11:19;;;;;;;1.90;1.20;;;7.60;99.90;;;;;;5078223;28;20439;-60
2023/02/18 07:13:46;;;;;;;2.90;1.53;;;7.60;99.90;;;;;;5078200;28;20487;-61
2023/02/18 07:16:13;;;;;;;4.93;1.43;;;7.50;99.90;;;;;;5078449;28;20420;-61
2023/02/18 07:18:40;;;;;;;3.37;1.53;;;7.60;99.90;;;;;;5078467;28;20482;-62
2023/02/18 07:21:08;;;;;;;4.43;1.33;;;7.60;99.90;;;;;;5078626;28;20420;-60
2023/02/18 07:23:35;;;;;;;1.90;0.80;;;7.50;99.90;;;;;;5078238;28;20472;-63
2023/02/18 07:26:07;;;;;;;4.70;1.27;;;7.90;99.90;;;;;;5078614;28;20423;-59
2023/02/18 07:28:36;;;;;;;5.67;0.97;;;7.40;99.90;;;;;;5078332;28;20427;-60
2023/02/18 07:31:03;;;;;;;2.13;1.10;;;7.90;99.90;;;;;;5078161;28;20438;-60
2023/02/18 07:33:31;;;;;;;1.20;0.87;;;7.60;99.90;;;;;;5078489;28;20471;-61
2023/02/18 07:35:59;;;;;;;7.50;1.47;;;7.50;99.90;;;;;;5077957;28;20498;-59
2023/02/18 07:38:29;;;;;;;3.53;0.90;;;7.60;99.90;;;;;;5077618;28;20446;-59
2023/02/18 07:40:56;;;;;;;3.37;0.87;;;7.60;99.90;;;;;;5076915;28;20463;-59
2023/02/18 07:43:25;;;;;;;4.93;1.03;;;7.20;99.90;;;;;;5078194;28;20458;-62
2023/02/18 07:45:52;;;;;;;2.30;1.23;;;7.70;99.90;;;;;;5078000;28;20471;-57
2023/02/18 07:48:19;;;;;;;6.83;1.20;;;8.00;99.90;;;;;;5078184;28;20443;-62
2023/02/18 07:50:47;;;;;;;9.33;1.20;;;7.60;99.90;;;;;;5077928;28;20439;-60
2023/02/18 07:53:15;;;;;;;2.30;1.23;;;7.50;99.90;;;;;;5077838;28;20423;-58
2023/02/18 07:55:49;;;;;;;2.57;1.00;;;7.60;99.90;;;;;;5077955;28;20486;-59
2023/02/18 07:58:21;;;;;;;2.40;1.23;;;7.50;99.90;;;;;;5077527;28;20475;-58
2023/02/18 08:00:49;;;;;;;3.73;1.20;;;7.60;99.90;;;;;;5077611;28;20442;-61
2023/02/18 08:03:16;;;;;;;5.70;1.17;;;7.60;99.90;;;;;;5077214;28;20529;-59
2023/02/18 08:05:43;;;;;;;6.50;1.07;;;7.70;99.90;;;;;;5077595;28;20443;-59
2023/02/18 08:08:15;;;;;;;3.63;0.83;;;7.60;99.90;;;;;;5077680;28;20490;-61
2023/02/18 08:10:43;;;;;;;3.90;0.80;;;7.40;99.90;;;;;;5077790;28;20450;-61
2023/02/18 08:13:10;;;;;;;6.10;1.00;;;7.60;99.90;;;;;;5077384;28;20438;-58
2023/02/18 08:15:38;;;;;;;1.20;0.90;;;7.70;99.90;;;;;;5077720;28;20498;-60
2023/02/18 08:18:06;;;;;;;1.57;1.00;;;7.60;99.90;;;;;;5077529;28;20427;-55
2023/02/18 08:20:38;;;;;;;2.90;0.70;;;7.70;99.90;;;;;;5076966;28;20467;-56
2023/02/18 08:23:05;;;;;;;1.30;0.80;;;7.50;99.90;;;;;;5077274;28;20408;-59
2023/02/18 08:25:35;;;;;;;1.93;0.73;;;7.50;99.90;;;;;;5077339;28;20459;-61
2023/02/18 08:28:04;;;;;;;2.83;1.13;;;5.90;99.90;;;;;;5076956;28;20428;-60
2023/02/18 08:30:33;;;;;;;3.30;0.70;;;7.50;99.90;;;;;;5077406;28;20470;-60
2023/02/18 08:33:06;;;;;;;9.20;6.00;;;7.50;99.90;;;;;;5077707;28;20432;-61
2023/02/18 08:35:34;;;;;;;3.40;1.10;;;7.40;99.90;;;;;;5077019;28;20463;-60
2023/02/18 08:38:01;;;;;;;3.87;1.80;;;7.40;99.90;;;;;;5076873;28;20438;-60
2023/02/18 08:40:28;;;;;;;7.77;4.20;;;7.50;99.90;;;;;;5076880;28;20432;-61
2023/02/18 08:42:55;;;;;;;11.10;1.80;;;7.40;99.90;;;;;;5076110;28;20474;-62
2023/02/18 08:45:23;;;;;;;11.87;4.30;;;7.60;99.90;;;;;;5076211;28;20440;-57
2023/02/18 08:47:50;;;;;;;1.97;0.90;;;7.50;99.90;;;;;;5075944;28;20475;-56
2023/02/18 08:50:19;;;;;;;1.30;1.00;;;6.10;99.90;;;;;;5076348;28;20436;-63
2023/02/18 08:52:47;;;;;;;1.93;1.20;;;7.50;99.90;;;;;;5075303;28;20474;-58
2023/02/18 08:55:14;;;;;;;3.10;1.00;;;7.50;99.90;;;;;;5075326;28;20490;-58
2023/02/18 08:57:41;;;;;;;16.03;1.70;;;7.50;99.90;;;;;;5075557;28;20435;-62
2023/02/18 09:00:09;;;;;;;4.10;1.33;;;7.50;99.90;;;;;;5075351;28;20435;-62
2023/02/18 09:02:37;;;;;;;1.90;1.00;;;7.50;99.90;;;;;;5073876;28;20443;-60
2023/02/18 09:05:05;;;;;;;4.20;1.53;;;7.50;99.90;;;;;;5067125;28;20459;-61
2023/02/18 09:07:32;;;;;;;2.50;1.27;;;7.60;99.90;;;;;;5067967;28;20454;-60
2023/02/18 09:09:58;;;;;;;5.13;1.13;;;7.60;99.90;;;;;;5068187;28;20470;-60
2023/02/18 09:12:25;;;;;;;6.00;1.30;;;7.00;99.90;;;;;;5067052;28;20447;-62
2023/02/18 09:14:52;;;;;;;2.73;0.90;;;7.60;99.90;;;;;;5067915;28;20475;-60
2023/02/18 09:17:19;;;;;;;2.30;0.70;;;7.60;99.90;;;;;;5067167;28;20439;-59
2023/02/18 09:19:47;;;;;;;1.40;0.87;;;7.80;99.90;;;;;;5067131;28;20455;-59
2023/02/18 09:22:14;;;;;;;4.80;1.30;;;7.70;99.90;;;;;;5066779;28;20914;-60
2023/02/18 09:24:42;;;;;;;3.63;1.33;;;7.50;99.90;;;;;;5061768;28;20534;-61
2023/02/18 09:27:09;;;;;;;3.20;1.43;;;7.80;99.90;;;;;;5059164;28;20503;-59
2023/02/18 09:29:38;;;;;;;3.23;2.00;;;7.80;99.90;;;;;;5059123;28;20538;-63
2023/02/18 09:32:07;;;;;;;8.77;2.27;;;8.30;99.90;;;;;;5058783;28;21019;-61
2023/02/18 09:34:33;;;;;;;2.73;1.77;;;7.80;99.90;;;;;;5058355;28;20526;-60
2023/02/18 09:37:02;;;;;;;4.60;1.20;;;7.80;99.90;;;;;;5058868;28;20510;-59
2023/02/18 09:39:29;;;;;;;2.70;1.63;;;7.80;99.90;;;;;;5058993;28;20479;-61
2023/02/18 09:42:00;;;;;;;6.20;1.90;;;7.90;99.90;;;;;;5058772;28;20501;-61
2023/02/18 09:44:31;;;;;;;1.60;1.17;;;7.80;99.90;;;;;;5058682;28;20467;-60
2023/02/18 09:47:02;;;;;;;5.10;1.53;;;7.90;99.90;;;;;;5058847;28;21070;-60
2023/02/18 09:49:34;;;;;;;7.30;2.27;;;7.90;99.90;;;;;;5058434;28;20549;-59
2023/02/18 09:52:10;;;;;;;4.50;1.47;;;8.30;99.90;;;;;;5058754;28;20427;-61
2023/02/18 09:54:37;;;;;;;4.13;1.47;;;7.80;99.90;;;;;;5058355;28;20475;-61
2023/02/18 09:57:06;;;;;;;4.30;1.13;;;7.90;99.90;;;;;;5059121;28;20482;-62
2023/02/18 09:59:33;;;;;;;11.93;2.10;;;7.60;99.90;;;;;;5058461;28;20486;-59
2023/02/18 10:02:02;;;;;;;7.53;2.20;;;7.70;99.90;;;;;;5058636;28;20538;-59
2023/02/18 10:04:37;;;;;;;4.70;2.40;;;7.70;99.90;;;;;;5063428;28;20783;-61
2023/02/18 10:07:05;;;;;;;3.53;2.60;;;7.60;99.90;;;;;;5069168;28;20470;-60
2023/02/18 10:09:35;;;;;;;5.60;2.10;;;7.60;99.90;;;;;;5068667;28;20511;-62
2023/02/18 10:12:13;;;;;;;8.23;2.37;;;7.70;99.90;;;;;;5068287;28;20474;-59
2023/02/18 10:14:39;;;;;;;5.90;2.10;;;7.70;99.90;;;;;;5068571;28;20434;-61
2023/02/18 10:17:14;;;;;;;7.00;2.43;;;7.80;99.90;;;;;;5068029;28;20510;-62
2023/02/18 10:19:43;;;;;;;6.87;1.93;;;7.90;99.90;;;;;;5068948;28;20439;-63
2023/02/18 10:22:13;;;;;;;10.53;2.80;;;7.80;99.90;;;;;;5068593;28;20478;-63
2023/02/18 10:24:42;;;;;;;7.17;2.87;;;7.90;99.90;;;;;;5068224;28;20427;-62
2023/02/18 10:27:11;;;;;;;4.90;2.33;;;7.90;99.90;;;;;;5068968;28;20439;-60
2023/02/18 10:29:38;;;;;;;3.63;1.70;;;7.90;99.90;;;;;;5068874;28;20982;-61
2023/02/18 10:32:19;;;;;;;3.43;1.30;;;7.70;99.90;;;;;;5068768;28;20535;-59
2023/02/18 10:34:49;;;;;;;13.60;2.30;;;8.00;99.90;;;;;;5068494;28;20466;-60
2023/02/18 10:37:35;;;;;;;5.30;2.53;;;7.80;99.90;;;;;;5069328;28;20427;-61
2023/02/18 10:40:12;;;;;;;11.73;3.50;;;7.50;99.90;;;;;;5068656;28;20502;-61
2023/02/18 10:42:51;;;;;;;4.20;2.10;;;7.80;99.90;;;;;;5067912;28;20450;-62
2023/02/18 10:45:32;;;;;;;6.30;1.97;;;7.80;99.90;;;;;;5062879;28;20499;-61
2023/02/18 10:48:11;;;;;;;4.10;1.80;;;7.90;99.90;;;;;;5061540;28;20430;-59
2023/02/18 10:50:40;;;;;;;5.00;2.00;;;7.90;99.90;;;;;;5061978;28;20501;-61
2023/02/18 10:53:13;;;;;;;14.30;7.00;;;8.00;99.90;;;;;;5061755;28;20526;-60
2023/02/18 10:55:42;;;;;;;4.60;1.87;;;8.00;99.90;;;;;;5061543;28;20463;-60
2023/02/18 10:58:29;;;;;;;1.77;1.00;;;8.10;99.90;;;;;;5062205;28;20892;-60
2023/02/18 11:00:59;;;;;;;11.53;2.77;;;8.50;99.90;;;;;;5061857;28;20431;-61
2023/02/18 11:03:36;;;;;;;11.47;2.07;;;7.90;99.90;;;;;;5061267;28;20493;-60
2023/02/18 11:06:03;;;;;;;4.30;2.03;;;7.80;99.90;;;;;;5067631;28;20459;-63
2023/02/18 11:08:42;;;;;;;7.23;2.07;;;7.90;99.90;;;;;;5068498;28;20490;-60
2023/02/18 11:11:14;;;;;;;6.10;2.17;;;8.20;99.90;;;;;;5068213;28;20427;-59
2023/02/18 11:13:42;;;;;;;1.90;1.40;;;7.80;99.90;;;;;;5068132;28;20478;-62
2023/02/18 11:16:10;;;;;;;6.27;1.70;;;8.10;99.90;;;;;;5067340;28;20479;-61
2023/02/18 11:18:39;;;;;;;1.80;1.20;;;8.10;99.90;;;;;;5067369;28;20558;-62
2023/02/18 11:21:19;;;;;;;4.83;1.53;;;8.00;99.90;;;;;;5067443;28;20443;-61
2023/02/18 11:23:50;;;;;;;29.93;9.97;;;7.90;99.90;;;;;;5066524;28;20482;-63
2023/02/18 11:26:26;;;;;;;6.43;4.10;;;7.90;99.90;;;;;;5067008;28;20455;-60
2023/02/18 11:29:00;;;;;;;3.47;1.57;;;8.30;99.90;;;;;;5068112;28;20466;-61
2023/02/18 11:31:37;;;;;;;4.20;2.20;;;7.90;99.90;;;;;;5067309;28;20506;-62
2023/02/18 11:34:05;;;;;;;14.27;4.30;;;7.70;99.90;;;;;;5066335;28;20451;-60
2023/02/18 11:36:35;;;;;;;2.13;1.50;;;8.10;99.90;;;;;;5066502;28;20479;-61
2023/02/18 11:39:06;;;;;;;1.30;1.00;;;7.70;99.90;;;;;;5066282;28;20466;-61
2023/02/18 11:41:37;;;;;;;2.73;1.10;;;7.60;99.90;;;;;;5066623;28;20479;-62
2023/02/18 11:44:06;;;;;;;3.23;1.30;;;8.10;99.90;;;;;;5067113;28;20495;-59
2023/02/18 11:46:33;;;;;;;1.60;1.13;;;7.80;99.90;;;;;;5067106;28;20475;-59
2023/02/18 11:49:21;;;;;;;4.40;1.73;;;7.90;99.90;;;;;;5067422;28;20494;-57
2023/02/18 11:51:50;;;;;;;3.80;1.57;;;8.30;99.90;;;;;;5067227;28;20463;-60
2023/02/18 11:54:25;;;;;;;2.27;1.27;;;7.90;99.90;;;;;;5067279;28;20726;-60
2023/02/18 11:56:57;;;;;;;3.73;1.50;;;7.80;99.90;;;;;;5066855;28;20966;-63
2023/02/18 11:59:24;;;;;;;3.17;1.17;;;8.00;99.90;;;;;;5066954;28;20456;-61
2023/02/18 12:01:55;;;;;;;3.40;1.27;;;8.00;99.90;;;;;;5067097;28;20509;-62
2023/02/18 12:04:29;;;;;;;2.60;1.80;;;7.80;99.90;;;;;;5066323;28;20478;-63
2023/02/18 12:07:11;;;;;;;2.63;2.20;;;8.10;99.90;;;;;;5065841;28;20426;-61
2023/02/18 12:09:49;;;;;;;1.80;1.60;;;8.10;99.90;;;;;;5066787;28;20535;-61
2023/02/18 12:12:21;;;;;;;6.63;1.60;;;8.20;99.90;;;;;;5065950;28;20459;-61
2023/02/18 12:14:48;;;;;;;2.37;1.80;;;8.20;99.90;;;;;;5066163;28;20463;-63
2023/02/18 12:17:40;;;;;;;2.30;2.00;;;8.30;99.90;;;;;;5065733;28;20951;-61
2023/02/18 12:20:47;;;;;;;16.50;8.50;;;8.40;99.90;;;;;;5064297;28;20502;-62
2023/02/18 12:23:22;;;;;;;3.67;2.20;;;8.50;99.90;;;;;;5055401;28;20463;-63
2023/02/18 12:25:59;;;;;;;6.80;2.70;;;8.60;99.90;;;;;;5065762;28;20538;-62
2023/02/18 12:28:41;;;;;;;3.57;2.77;;;9.10;99.90;;;;;;5065158;28;20438;-61
2023/02/18 12:31:36;;;;;;;4.23;2.20;;;8.60;99.90;;;;;;5065724;28;20475;-62
2023/02/18 12:34:22;;;;;;;4.03;1.87;;;8.70;99.90;;;;;;5066675;28;20873;-60
2023/02/18 12:37:01;;;;;;;3.23;2.03;;;9.00;99.90;;;;;;5065885;28;20554;-63
2023/02/18 12:39:45;;;;;;;2.30;1.73;;;9.20;99.90;;;;;;5065620;28;20451;-64
2023/02/18 12:42:40;;;;;;;5.87;2.17;;;8.90;99.90;;;;;;5065176;28;20471;-60
2023/02/18 12:45:21;;;;;;;11.60;4.80;;;9.00;99.90;;;;;;5066607;28;20783;-61
2023/02/18 12:48:09;;;;;;;5.37;2.70;;;9.20;99.90;;;;;;5065011;28;21016;-62
2023/02/18 12:51:01;;;;;;;4.73;2.40;;;9.30;99.90;;;;;;5064975;28;20427;-63
2023/02/18 12:53:44;;;;;;;2.53;1.83;;;9.40;99.90;;;;;;5065275;28;20506;-64
2023/02/18 12:56:28;;;;;;;3.10;1.80;;;9.40;99.90;;;;;;5064583;28;20974;-64
2023/02/18 12:59:07;;;;;;;2.37;1.97;;;9.40;99.90;;;;;;5064667;28;20553;-62
2023/02/18 13:01:42;;;;;;;3.97;2.20;;;9.40;99.90;;;;;;5064678;28;20511;-58
2023/02/18 13:04:24;;;;;;;3.67;2.03;;;9.80;99.90;;;;;;5064114;28;20403;-60
2023/02/18 13:07:15;;;;;;;6.47;1.60;;;9.90;99.90;;;;;;5064706;28;20734;-63
2023/02/18 13:09:56;;;;;;;2.90;2.00;;;9.90;99.90;;;;;;5058762;28;20462;-63
2023/02/18 13:12:31;;;;;;;4.93;3.20;;;10.30;99.90;;;;;;5064610;28;20427;-64
2023/02/18 13:15:04;;;;;;;2.60;2.30;;;10.20;99.90;;;;;;5063795;28;20431;-62